sensor_id;sensor_type;location;lat;lon;timestamp;P1;durP1;ratioP1;P2;durP2;ratioP2
28613;SDS011;15806;53.548;9.964;2023-03-01T00:00:34;10.13;;;4.28;;
28613;SDS011;15806;53.548;9.964;2023-03-01T00:02:16;9.23;;;3.72;;
28613;SDS011;15806;53.548;9.964;2023-03-01T00:03:57;8.63;;;4.53;;
28613;SDS011;15806;53.548;9.964;2023-03-01T00:05:45;11.73;;;3.63;;
28613;SDS011;15806;53.548;9.964;2023-03-01T00:07:26;9.50;;;4.93;;
28613;SDS011;15806;53.548;9.964;2023-03-01T00:09:07;10.30;;;3.40;;
28613;SDS011;15806;53.548;9.964;2023-03-01T00:10:47;7.90;;;3.30;;
28613;SDS011;15806;53.548;9.964;2023-03-01T00:12:28;9.73;;;4.30;;
28613;SDS011;15806;53.548;9.964;2023-03-01T00:14:08;7.37;;;3.73;;
28613;SDS011;15806;53.548;9.964;2023-03-01T00:15:49;11.20;;;4.03;;
28613;SDS011;15806;53.548;9.964;2023-03-01T00:17:29;6.30;;;2.87;;
28613;SDS011;15806;53.548;9.964;2023-03-01T00:19:14;8.27;;;3.70;;
28613;SDS011;15806;53.548;9.964;2023-03-01T00:20:58;7.38;;;3.80;;
28613;SDS011;15806;53.548;9.964;2023-03-01T00:22:39;8.95;;;4.18;;
28613;SDS011;15806;53.548;9.964;2023-03-01T00:24:20;12.33;;;4.20;;
28613;SDS011;15806;53.548;9.964;2023-03-01T00:26:00;8.33;;;3.47;;
28613;SDS011;15806;53.548;9.964;2023-03-01T00:27:41;9.57;;;4.18;;
28613;SDS011;15806;53.548;9.964;2023-03-01T00:29:25;10.93;;;4.43;;
28613;SDS011;15806;53.548;9.964;2023-03-01T00:31:10;7.57;;;3.88;;
28613;SDS011;15806;53.548;9.964;2023-03-01T00:33:01;9.13;;;3.75;;
28613;SDS011;15806;53.548;9.964;2023-03-01T00:34:42;7.25;;;3.63;;
28613;SDS011;15806;53.548;9.964;2023-03-01T00:36:23;10.23;;;4.60;;
28613;SDS011;15806;53.548;9.964;2023-03-01T00:38:05;10.73;;;5.20;;
28613;SDS011;15806;53.548;9.964;2023-03-01T00:39:46;12.63;;;4.47;;
28613;SDS011;15806;53.548;9.964;2023-03-01T00:41:26;9.80;;;4.85;;
28613;SDS011;15806;53.548;9.964;2023-03-01T00:43:07;9.20;;;3.73;;
28613;SDS011;15806;53.548;9.964;2023-03-01T00:44:48;10.57;;;5.35;;
28613;SDS011;15806;53.548;9.964;2023-03-01T00:46:28;10.90;;;3.73;;
28613;SDS011;15806;53.548;9.964;2023-03-01T00:48:09;8.23;;;3.33;;
28613;SDS011;15806;53.548;9.964;2023-03-01T00:49:49;7.80;;;4.23;;
28613;SDS011;15806;53.548;9.964;2023-03-01T00:51:30;5.77;;;3.50;;
28613;SDS011;15806;53.548;9.964;2023-03-01T00:53:11;10.07;;;4.20;;
28613;SDS011;15806;53.548;9.964;2023-03-01T00:54:52;9.53;;;3.30;;
28613;SDS011;15806;53.548;9.964;2023-03-01T00:56:32;11.00;;;4.53;;
28613;SDS011;15806;53.548;9.964;2023-03-01T00:58:13;9.40;;;3.90;;
28613;SDS011;15806;53.548;9.964;2023-03-01T00:59:54;10.53;;;4.17;;
28613;SDS011;15806;53.548;9.964;2023-03-01T01:01:34;9.17;;;3.70;;
28613;SDS011;15806;53.548;9.964;2023-03-01T01:03:15;8.73;;;4.27;;
28613;SDS011;15806;53.548;9.964;2023-03-01T01:04:55;9.27;;;4.20;;
28613;SDS011;15806;53.548;9.964;2023-03-01T01:06:40;8.60;;;3.93;;
28613;SDS011;15806;53.548;9.964;2023-03-01T01:08:22;9.57;;;4.68;;
28613;SDS011;15806;53.548;9.964;2023-03-01T01:10:03;6.60;;;3.43;;
28613;SDS011;15806;53.548;9.964;2023-03-01T01:11:44;9.90;;;4.18;;
28613;SDS011;15806;53.548;9.964;2023-03-01T01:13:26;7.45;;;3.05;;
28613;SDS011;15806;53.548;9.964;2023-03-01T01:15:07;9.63;;;3.67;;
28613;SDS011;15806;53.548;9.964;2023-03-01T01:16:48;8.75;;;3.42;;
28613;SDS011;15806;53.548;9.964;2023-03-01T01:18:28;8.43;;;2.70;;
28613;SDS011;15806;53.548;9.964;2023-03-01T01:20:09;9.43;;;2.73;;
28613;SDS011;15806;53.548;9.964;2023-03-01T01:23:31;5.15;;;2.30;;
28613;SDS011;15806;53.548;9.964;2023-03-01T01:25:12;4.10;;;2.08;;
28613;SDS011;15806;53.548;9.964;2023-03-01T01:26:53;6.57;;;2.33;;
28613;SDS011;15806;53.548;9.964;2023-03-01T01:28:33;4.90;;;2.43;;
28613;SDS011;15806;53.548;9.964;2023-03-01T01:30:14;6.88;;;2.88;;
28613;SDS011;15806;53.548;9.964;2023-03-01T01:31:54;9.97;;;3.73;;
28613;SDS011;15806;53.548;9.964;2023-03-01T01:33:35;6.07;;;2.43;;
28613;SDS011;15806;53.548;9.964;2023-03-01T01:35:16;10.73;;;3.70;;
28613;SDS011;15806;53.548;9.964;2023-03-01T01:36:56;4.63;;;2.30;;
28613;SDS011;15806;53.548;9.964;2023-03-01T01:38:37;6.13;;;2.90;;
28613;SDS011;15806;53.548;9.964;2023-03-01T01:40:18;10.55;;;4.00;;
28613;SDS011;15806;53.548;9.964;2023-03-01T01:41:59;5.30;;;2.30;;
28613;SDS011;15806;53.548;9.964;2023-03-01T01:47:16;6.05;;;3.08;;
28613;SDS011;15806;53.548;9.964;2023-03-01T01:49:00;6.22;;;2.72;;
28613;SDS011;15806;53.548;9.964;2023-03-01T01:50:45;8.43;;;3.28;;
28613;SDS011;15806;53.548;9.964;2023-03-01T01:52:38;6.03;;;2.55;;
28613;SDS011;15806;53.548;9.964;2023-03-01T01:54:21;7.30;;;2.97;;
28613;SDS011;15806;53.548;9.964;2023-03-01T01:56:08;6.30;;;2.72;;
28613;SDS011;15806;53.548;9.964;2023-03-01T01:57:52;4.38;;;2.15;;
28613;SDS011;15806;53.548;9.964;2023-03-01T01:59:36;4.85;;;1.98;;
28613;SDS011;15806;53.548;9.964;2023-03-01T02:01:17;3.90;;;1.60;;
28613;SDS011;15806;53.548;9.964;2023-03-01T02:03:00;6.47;;;2.25;;
28613;SDS011;15806;53.548;9.964;2023-03-01T02:04:44;4.00;;;1.80;;
28613;SDS011;15806;53.548;9.964;2023-03-01T02:06:28;8.90;;;1.95;;
28613;SDS011;15806;53.548;9.964;2023-03-01T02:08:12;4.90;;;1.80;;
28613;SDS011;15806;53.548;9.964;2023-03-01T02:09:54;6.35;;;1.88;;
28613;SDS011;15806;53.548;9.964;2023-03-01T02:11:35;2.67;;;1.43;;
28613;SDS011;15806;53.548;9.964;2023-03-01T02:13:16;5.18;;;1.83;;
28613;SDS011;15806;53.548;9.964;2023-03-01T02:14:57;2.57;;;1.40;;
28613;SDS011;15806;53.548;9.964;2023-03-01T02:16:37;4.17;;;1.80;;
28613;SDS011;15806;53.548;9.964;2023-03-01T02:18:18;5.33;;;1.63;;
28613;SDS011;15806;53.548;9.964;2023-03-01T02:20:19;4.38;;;2.08;;
28613;SDS011;15806;53.548;9.964;2023-03-01T02:22:20;3.00;;;1.33;;
28613;SDS011;15806;53.548;9.964;2023-03-01T02:24:11;4.18;;;1.63;;
28613;SDS011;15806;53.548;9.964;2023-03-01T02:26:23;4.78;;;1.80;;
28613;SDS011;15806;53.548;9.964;2023-03-01T02:30:10;3.97;;;1.70;;
28613;SDS011;15806;53.548;9.964;2023-03-01T02:31:51;3.43;;;1.60;;
28613;SDS011;15806;53.548;9.964;2023-03-01T02:33:34;2.00;;;1.42;;
28613;SDS011;15806;53.548;9.964;2023-03-01T02:35:17;5.18;;;1.40;;
28613;SDS011;15806;53.548;9.964;2023-03-01T02:37:09;2.97;;;1.65;;
28613;SDS011;15806;53.548;9.964;2023-03-01T02:38:54;4.05;;;1.38;;
28613;SDS011;15806;53.548;9.964;2023-03-01T02:40:37;4.57;;;1.42;;
28613;SDS011;15806;53.548;9.964;2023-03-01T02:44:03;3.20;;;1.27;;
28613;SDS011;15806;53.548;9.964;2023-03-01T02:45:48;4.28;;;2.10;;
28613;SDS011;15806;53.548;9.964;2023-03-01T02:47:30;5.57;;;1.98;;
28613;SDS011;15806;53.548;9.964;2023-03-01T02:49:21;6.10;;;1.70;;
28613;SDS011;15806;53.548;9.964;2023-03-01T02:51:07;6.22;;;2.05;;
28613;SDS011;15806;53.548;9.964;2023-03-01T02:52:55;7.05;;;2.40;;
28613;SDS011;15806;53.548;9.964;2023-03-01T02:55:10;3.38;;;1.60;;
28613;SDS011;15806;53.548;9.964;2023-03-01T02:56:53;4.57;;;1.98;;
28613;SDS011;15806;53.548;9.964;2023-03-01T02:58:33;4.93;;;1.80;;
28613;SDS011;15806;53.548;9.964;2023-03-01T03:00:19;3.67;;;1.70;;
28613;SDS011;15806;53.548;9.964;2023-03-01T03:02:01;3.38;;;1.55;;
28613;SDS011;15806;53.548;9.964;2023-03-01T03:03:42;7.00;;;1.80;;
28613;SDS011;15806;53.548;9.964;2023-03-01T03:05:23;3.23;;;1.57;;
28613;SDS011;15806;53.548;9.964;2023-03-01T03:07:06;5.50;;;2.05;;
28613;SDS011;15806;53.548;9.964;2023-03-01T03:08:46;7.27;;;1.87;;
28613;SDS011;15806;53.548;9.964;2023-03-01T03:10:28;3.70;;;1.60;;
28613;SDS011;15806;53.548;9.964;2023-03-01T03:12:15;5.93;;;2.40;;
28613;SDS011;15806;53.548;9.964;2023-03-01T03:13:55;5.03;;;1.83;;
28613;SDS011;15806;53.548;9.964;2023-03-01T03:15:36;5.43;;;2.60;;
28613;SDS011;15806;53.548;9.964;2023-03-01T03:17:16;3.57;;;1.87;;
28613;SDS011;15806;53.548;9.964;2023-03-01T03:18:57;7.37;;;2.60;;
28613;SDS011;15806;53.548;9.964;2023-03-01T03:20:38;4.57;;;1.87;;
28613;SDS011;15806;53.548;9.964;2023-03-01T03:22:20;7.80;;;2.08;;
28613;SDS011;15806;53.548;9.964;2023-03-01T03:24:01;5.27;;;2.07;;
28613;SDS011;15806;53.548;9.964;2023-03-01T03:25:42;7.28;;;3.78;;
28613;SDS011;15806;53.548;9.964;2023-03-01T03:27:22;6.27;;;2.20;;
28613;SDS011;15806;53.548;9.964;2023-03-01T03:29:03;6.77;;;2.30;;
28613;SDS011;15806;53.548;9.964;2023-03-01T03:30:56;6.87;;;2.20;;
28613;SDS011;15806;53.548;9.964;2023-03-01T03:32:48;5.13;;;1.90;;
28613;SDS011;15806;53.548;9.964;2023-03-01T03:34:40;6.18;;;2.17;;
28613;SDS011;15806;53.548;9.964;2023-03-01T03:36:22;3.88;;;2.00;;
28613;SDS011;15806;53.548;9.964;2023-03-01T03:38:04;4.88;;;1.90;;
28613;SDS011;15806;53.548;9.964;2023-03-01T03:39:46;6.00;;;1.95;;
28613;SDS011;15806;53.548;9.964;2023-03-01T03:41:26;4.00;;;2.03;;
28613;SDS011;15806;53.548;9.964;2023-03-01T03:43:10;6.43;;;2.20;;
28613;SDS011;15806;53.548;9.964;2023-03-01T03:45:02;5.07;;;1.77;;
28613;SDS011;15806;53.548;9.964;2023-03-01T03:46:42;5.25;;;2.13;;
28613;SDS011;15806;53.548;9.964;2023-03-01T03:48:23;3.50;;;1.80;;
28613;SDS011;15806;53.548;9.964;2023-03-01T03:50:04;4.57;;;1.85;;
28613;SDS011;15806;53.548;9.964;2023-03-01T03:51:45;3.60;;;1.65;;
28613;SDS011;15806;53.548;9.964;2023-03-01T03:53:26;6.03;;;2.30;;
28613;SDS011;15806;53.548;9.964;2023-03-01T03:55:09;4.40;;;1.80;;
28613;SDS011;15806;53.548;9.964;2023-03-01T03:56:50;5.85;;;2.13;;
28613;SDS011;15806;53.548;9.964;2023-03-01T03:58:31;5.03;;;2.00;;
28613;SDS011;15806;53.548;9.964;2023-03-01T04:00:12;4.33;;;1.63;;
28613;SDS011;15806;53.548;9.964;2023-03-01T04:01:52;2.58;;;1.42;;
28613;SDS011;15806;53.548;9.964;2023-03-01T04:03:33;3.90;;;1.57;;
28613;SDS011;15806;53.548;9.964;2023-03-01T04:05:15;4.93;;;2.30;;
28613;SDS011;15806;53.548;9.964;2023-03-01T04:06:57;5.45;;;1.70;;
28613;SDS011;15806;53.548;9.964;2023-03-01T04:08:37;4.90;;;2.17;;
28613;SDS011;15806;53.548;9.964;2023-03-01T04:10:18;4.20;;;1.77;;
28613;SDS011;15806;53.548;9.964;2023-03-01T04:11:59;6.17;;;2.63;;
28613;SDS011;15806;53.548;9.964;2023-03-01T04:13:39;6.67;;;2.30;;
28613;SDS011;15806;53.548;9.964;2023-03-01T04:15:20;8.17;;;2.50;;
28613;SDS011;15806;53.548;9.964;2023-03-01T04:17:00;5.60;;;2.10;;
28613;SDS011;15806;53.548;9.964;2023-03-01T04:18:41;8.83;;;2.27;;
28613;SDS011;15806;53.548;9.964;2023-03-01T04:20:22;5.07;;;1.70;;
28613;SDS011;15806;53.548;9.964;2023-03-01T04:22:04;3.83;;;1.98;;
28613;SDS011;15806;53.548;9.964;2023-03-01T04:23:45;5.90;;;2.27;;
28613;SDS011;15806;53.548;9.964;2023-03-01T04:25:26;4.87;;;1.87;;
28613;SDS011;15806;53.548;9.964;2023-03-01T04:27:06;6.53;;;2.07;;
28613;SDS011;15806;53.548;9.964;2023-03-01T04:28:47;6.03;;;2.00;;
28613;SDS011;15806;53.548;9.964;2023-03-01T04:30:27;5.30;;;2.53;;
28613;SDS011;15806;53.548;9.964;2023-03-01T04:32:08;5.60;;;1.70;;
28613;SDS011;15806;53.548;9.964;2023-03-01T04:33:49;6.57;;;2.30;;
28613;SDS011;15806;53.548;9.964;2023-03-01T04:35:35;5.65;;;1.85;;
28613;SDS011;15806;53.548;9.964;2023-03-01T04:37:16;4.13;;;2.20;;
28613;SDS011;15806;53.548;9.964;2023-03-01T04:38:57;5.83;;;1.90;;
28613;SDS011;15806;53.548;9.964;2023-03-01T04:40:37;3.70;;;2.28;;
28613;SDS011;15806;53.548;9.964;2023-03-01T04:42:19;4.07;;;1.92;;
28613;SDS011;15806;53.548;9.964;2023-03-01T04:43:59;7.93;;;2.50;;
28613;SDS011;15806;53.548;9.964;2023-03-01T04:45:40;4.07;;;1.93;;
28613;SDS011;15806;53.548;9.964;2023-03-01T04:47:20;5.07;;;1.93;;
28613;SDS011;15806;53.548;9.964;2023-03-01T04:49:01;3.10;;;1.67;;
28613;SDS011;15806;53.548;9.964;2023-03-01T04:52:23;5.63;;;2.05;;
28613;SDS011;15806;53.548;9.964;2023-03-01T04:54:03;3.90;;;2.20;;
28613;SDS011;15806;53.548;9.964;2023-03-01T04:55:44;7.40;;;1.60;;
28613;SDS011;15806;53.548;9.964;2023-03-01T04:57:24;6.43;;;1.70;;
28613;SDS011;15806;53.548;9.964;2023-03-01T04:59:05;5.30;;;1.80;;
28613;SDS011;15806;53.548;9.964;2023-03-01T05:00:45;3.67;;;1.60;;
28613;SDS011;15806;53.548;9.964;2023-03-01T05:02:26;7.50;;;2.07;;
28613;SDS011;15806;53.548;9.964;2023-03-01T05:04:06;4.50;;;1.70;;
28613;SDS011;15806;53.548;9.964;2023-03-01T05:05:48;7.97;;;2.07;;
28613;SDS011;15806;53.548;9.964;2023-03-01T05:07:30;6.65;;;2.70;;
28613;SDS011;15806;53.548;9.964;2023-03-01T05:09:10;6.37;;;2.00;;
28613;SDS011;15806;53.548;9.964;2023-03-01T05:10:51;3.87;;;1.90;;
28613;SDS011;15806;53.548;9.964;2023-03-01T05:12:32;4.38;;;1.92;;
28613;SDS011;15806;53.548;9.964;2023-03-01T05:14:13;4.67;;;1.70;;
28613;SDS011;15806;53.548;9.964;2023-03-01T05:15:54;4.67;;;1.93;;
28613;SDS011;15806;53.548;9.964;2023-03-01T05:17:39;5.70;;;2.22;;
28613;SDS011;15806;53.548;9.964;2023-03-01T05:19:19;4.53;;;2.40;;
28613;SDS011;15806;53.548;9.964;2023-03-01T05:22:51;4.60;;;2.63;;
28613;SDS011;15806;53.548;9.964;2023-03-01T05:24:34;5.97;;;2.10;;
28613;SDS011;15806;53.548;9.964;2023-03-01T05:26:16;5.47;;;2.03;;
28613;SDS011;15806;53.548;9.964;2023-03-01T05:27:59;4.93;;;1.95;;
28613;SDS011;15806;53.548;9.964;2023-03-01T05:29:40;4.85;;;2.13;;
28613;SDS011;15806;53.548;9.964;2023-03-01T05:31:21;6.47;;;2.30;;
28613;SDS011;15806;53.548;9.964;2023-03-01T05:33:01;5.90;;;2.40;;
28613;SDS011;15806;53.548;9.964;2023-03-01T05:34:42;5.83;;;2.70;;
28613;SDS011;15806;53.548;9.964;2023-03-01T05:36:23;2.50;;;1.70;;
28613;SDS011;15806;53.548;9.964;2023-03-01T05:38:03;6.23;;;2.27;;
28613;SDS011;15806;53.548;9.964;2023-03-01T05:39:44;4.67;;;2.30;;
28613;SDS011;15806;53.548;9.964;2023-03-01T05:41:24;7.57;;;2.83;;
28613;SDS011;15806;53.548;9.964;2023-03-01T05:43:05;6.17;;;2.60;;
28613;SDS011;15806;53.548;9.964;2023-03-01T05:44:45;5.80;;;2.57;;
28613;SDS011;15806;53.548;9.964;2023-03-01T05:46:26;11.40;;;3.17;;
28613;SDS011;15806;53.548;9.964;2023-03-01T05:48:06;7.97;;;2.83;;
28613;SDS011;15806;53.548;9.964;2023-03-01T05:49:49;5.63;;;2.53;;
28613;SDS011;15806;53.548;9.964;2023-03-01T05:51:29;8.23;;;4.20;;
28613;SDS011;15806;53.548;9.964;2023-03-01T05:53:11;11.07;;;2.67;;
28613;SDS011;15806;53.548;9.964;2023-03-01T05:54:53;8.30;;;3.25;;
28613;SDS011;15806;53.548;9.964;2023-03-01T05:56:34;3.90;;;2.23;;
28613;SDS011;15806;53.548;9.964;2023-03-01T05:58:19;7.63;;;3.33;;
28613;SDS011;15806;53.548;9.964;2023-03-01T06:00:00;7.85;;;2.92;;
28613;SDS011;15806;53.548;9.964;2023-03-01T06:01:40;4.70;;;2.17;;
28613;SDS011;15806;53.548;9.964;2023-03-01T06:03:21;7.10;;;3.07;;
28613;SDS011;15806;53.548;9.964;2023-03-01T06:05:01;9.90;;;2.50;;
28613;SDS011;15806;53.548;9.964;2023-03-01T06:06:42;5.20;;;2.63;;
28613;SDS011;15806;53.548;9.964;2023-03-01T06:08:22;4.70;;;2.53;;
28613;SDS011;15806;53.548;9.964;2023-03-01T06:10:03;5.63;;;2.60;;
28613;SDS011;15806;53.548;9.964;2023-03-01T06:13:25;6.15;;;2.83;;
28613;SDS011;15806;53.548;9.964;2023-03-01T06:15:06;7.23;;;2.77;;
28613;SDS011;15806;53.548;9.964;2023-03-01T06:16:47;4.82;;;2.90;;
28613;SDS011;15806;53.548;9.964;2023-03-01T06:18:27;5.50;;;2.73;;
28613;SDS011;15806;53.548;9.964;2023-03-01T06:20:12;9.73;;;2.87;;
28613;SDS011;15806;53.548;9.964;2023-03-01T06:21:58;6.88;;;2.88;;
28613;SDS011;15806;53.548;9.964;2023-03-01T06:23:38;6.83;;;2.77;;
28613;SDS011;15806;53.548;9.964;2023-03-01T06:25:20;7.47;;;3.43;;
28613;SDS011;15806;53.548;9.964;2023-03-01T06:27:01;6.93;;;3.08;;
28613;SDS011;15806;53.548;9.964;2023-03-01T06:28:42;7.70;;;2.70;;
28613;SDS011;15806;53.548;9.964;2023-03-01T06:30:23;3.63;;;2.30;;
28613;SDS011;15806;53.548;9.964;2023-03-01T06:32:05;5.88;;;2.50;;
28613;SDS011;15806;53.548;9.964;2023-03-01T06:33:45;7.63;;;2.67;;
28613;SDS011;15806;53.548;9.964;2023-03-01T06:35:26;8.80;;;3.10;;
28613;SDS011;15806;53.548;9.964;2023-03-01T06:37:07;8.17;;;2.97;;
28613;SDS011;15806;53.548;9.964;2023-03-01T06:38:48;7.38;;;2.90;;
28613;SDS011;15806;53.548;9.964;2023-03-01T06:40:28;7.70;;;2.80;;
28613;SDS011;15806;53.548;9.964;2023-03-01T06:43:50;7.72;;;2.70;;
28613;SDS011;15806;53.548;9.964;2023-03-01T06:45:31;5.83;;;2.97;;
28613;SDS011;15806;53.548;9.964;2023-03-01T06:47:11;6.40;;;3.03;;
28613;SDS011;15806;53.548;9.964;2023-03-01T06:48:52;8.77;;;3.70;;
28613;SDS011;15806;53.548;9.964;2023-03-01T06:50:33;4.87;;;2.43;;
28613;SDS011;15806;53.548;9.964;2023-03-01T06:52:14;5.65;;;2.75;;
28613;SDS011;15806;53.548;9.964;2023-03-01T06:53:55;6.33;;;2.77;;
28613;SDS011;15806;53.548;9.964;2023-03-01T06:55:35;7.07;;;2.40;;
28613;SDS011;15806;53.548;9.964;2023-03-01T06:57:16;8.80;;;2.93;;
28613;SDS011;15806;53.548;9.964;2023-03-01T06:58:57;8.80;;;2.77;;
28613;SDS011;15806;53.548;9.964;2023-03-01T07:00:37;7.70;;;2.35;;
28613;SDS011;15806;53.548;9.964;2023-03-01T07:02:18;9.20;;;2.70;;
28613;SDS011;15806;53.548;9.964;2023-03-01T07:03:59;7.47;;;2.60;;
28613;SDS011;15806;53.548;9.964;2023-03-01T07:05:39;6.17;;;2.80;;
28613;SDS011;15806;53.548;9.964;2023-03-01T07:07:20;7.30;;;2.70;;
28613;SDS011;15806;53.548;9.964;2023-03-01T07:09:00;8.73;;;2.77;;
28613;SDS011;15806;53.548;9.964;2023-03-01T07:10:41;5.53;;;2.80;;
28613;SDS011;15806;53.548;9.964;2023-03-01T07:12:21;6.07;;;3.23;;
28613;SDS011;15806;53.548;9.964;2023-03-01T07:14:02;12.73;;;4.07;;
28613;SDS011;15806;53.548;9.964;2023-03-01T07:15:42;8.73;;;2.60;;
28613;SDS011;15806;53.548;9.964;2023-03-01T07:17:23;6.07;;;2.50;;
28613;SDS011;15806;53.548;9.964;2023-03-01T07:19:03;10.33;;;2.70;;
28613;SDS011;15806;53.548;9.964;2023-03-01T07:20:44;8.77;;;3.60;;
28613;SDS011;15806;53.548;9.964;2023-03-01T07:22:24;9.63;;;3.40;;
28613;SDS011;15806;53.548;9.964;2023-03-01T07:24:06;8.25;;;2.60;;
28613;SDS011;15806;53.548;9.964;2023-03-01T07:25:53;7.63;;;2.75;;
28613;SDS011;15806;53.548;9.964;2023-03-01T07:27:34;9.25;;;3.42;;
28613;SDS011;15806;53.548;9.964;2023-03-01T07:29:15;14.03;;;3.07;;
28613;SDS011;15806;53.548;9.964;2023-03-01T07:31:00;10.30;;;2.97;;
28613;SDS011;15806;53.548;9.964;2023-03-01T07:32:44;8.35;;;3.58;;
28613;SDS011;15806;53.548;9.964;2023-03-01T07:34:24;10.70;;;4.53;;
28613;SDS011;15806;53.548;9.964;2023-03-01T07:36:05;9.10;;;3.63;;
28613;SDS011;15806;53.548;9.964;2023-03-01T07:37:46;8.02;;;3.25;;
28613;SDS011;15806;53.548;9.964;2023-03-01T07:39:27;8.57;;;3.27;;
28613;SDS011;15806;53.548;9.964;2023-03-01T07:41:07;10.43;;;3.87;;
28613;SDS011;15806;53.548;9.964;2023-03-01T07:42:48;10.30;;;3.97;;
28613;SDS011;15806;53.548;9.964;2023-03-01T07:44:28;8.23;;;4.10;;
28613;SDS011;15806;53.548;9.964;2023-03-01T07:46:09;11.50;;;3.80;;
28613;SDS011;15806;53.548;9.964;2023-03-01T07:47:51;9.73;;;3.60;;
28613;SDS011;15806;53.548;9.964;2023-03-01T07:49:32;9.98;;;3.58;;
28613;SDS011;15806;53.548;9.964;2023-03-01T07:51:13;9.23;;;3.90;;
28613;SDS011;15806;53.548;9.964;2023-03-01T07:52:54;10.10;;;4.30;;
28613;SDS011;15806;53.548;9.964;2023-03-01T07:54:34;9.53;;;3.97;;
28613;SDS011;15806;53.548;9.964;2023-03-01T07:56:15;9.87;;;3.97;;
28613;SDS011;15806;53.548;9.964;2023-03-01T07:57:56;12.13;;;4.00;;
28613;SDS011;15806;53.548;9.964;2023-03-01T07:59:36;13.60;;;4.33;;
28613;SDS011;15806;53.548;9.964;2023-03-01T08:01:18;10.27;;;4.30;;
28613;SDS011;15806;53.548;9.964;2023-03-01T08:03:00;11.35;;;4.78;;
28613;SDS011;15806;53.548;9.964;2023-03-01T08:04:41;12.10;;;4.63;;
28613;SDS011;15806;53.548;9.964;2023-03-01T08:06:22;14.30;;;4.83;;
28613;SDS011;15806;53.548;9.964;2023-03-01T08:08:03;11.53;;;3.70;;
28613;SDS011;15806;53.548;9.964;2023-03-01T08:11:24;9.85;;;3.92;;
28613;SDS011;15806;53.548;9.964;2023-03-01T08:13:05;10.80;;;4.77;;
28613;SDS011;15806;53.548;9.964;2023-03-01T08:14:45;10.47;;;4.37;;
28613;SDS011;15806;53.548;9.964;2023-03-01T08:16:26;13.50;;;5.07;;
28613;SDS011;15806;53.548;9.964;2023-03-01T08:18:06;8.53;;;4.30;;
28613;SDS011;15806;53.548;9.964;2023-03-01T08:19:47;12.17;;;4.40;;
28613;SDS011;15806;53.548;9.964;2023-03-01T08:21:27;10.63;;;4.70;;
28613;SDS011;15806;53.548;9.964;2023-03-01T08:23:08;13.40;;;4.37;;
28613;SDS011;15806;53.548;9.964;2023-03-01T08:24:49;9.60;;;4.20;;
28613;SDS011;15806;53.548;9.964;2023-03-01T08:26:29;15.57;;;5.37;;
28613;SDS011;15806;53.548;9.964;2023-03-01T08:28:10;9.48;;;4.40;;
28613;SDS011;15806;53.548;9.964;2023-03-01T08:29:51;9.13;;;3.90;;
28613;SDS011;15806;53.548;9.964;2023-03-01T08:31:33;8.87;;;4.37;;
28613;SDS011;15806;53.548;9.964;2023-03-01T08:33:15;9.00;;;3.88;;
28613;SDS011;15806;53.548;9.964;2023-03-01T08:34:55;13.93;;;5.27;;
28613;SDS011;15806;53.548;9.964;2023-03-01T08:36:37;11.37;;;5.03;;
28613;SDS011;15806;53.548;9.964;2023-03-01T08:38:19;9.52;;;4.43;;
28613;SDS011;15806;53.548;9.964;2023-03-01T08:40:00;10.80;;;4.93;;
28613;SDS011;15806;53.548;9.964;2023-03-01T08:41:40;14.83;;;4.90;;
28613;SDS011;15806;53.548;9.964;2023-03-01T08:43:21;14.52;;;5.15;;
28613;SDS011;15806;53.548;9.964;2023-03-01T08:45:02;10.83;;;5.07;;
28613;SDS011;15806;53.548;9.964;2023-03-01T08:46:44;10.65;;;4.72;;
28613;SDS011;15806;53.548;9.964;2023-03-01T08:48:24;11.40;;;5.17;;
28613;SDS011;15806;53.548;9.964;2023-03-01T08:50:07;11.38;;;5.20;;
28613;SDS011;15806;53.548;9.964;2023-03-01T08:51:48;15.50;;;5.45;;
28613;SDS011;15806;53.548;9.964;2023-03-01T08:53:29;14.57;;;5.90;;
28613;SDS011;15806;53.548;9.964;2023-03-01T08:55:09;10.60;;;5.10;;
28613;SDS011;15806;53.548;9.964;2023-03-01T08:56:50;8.53;;;4.53;;
28613;SDS011;15806;53.548;9.964;2023-03-01T08:58:30;11.00;;;4.57;;
28613;SDS011;15806;53.548;9.964;2023-03-01T09:00:11;10.93;;;4.43;;
28613;SDS011;15806;53.548;9.964;2023-03-01T09:01:52;8.57;;;4.05;;
28613;SDS011;15806;53.548;9.964;2023-03-01T09:03:32;10.67;;;4.30;;
28613;SDS011;15806;53.548;9.964;2023-03-01T09:05:13;11.57;;;6.20;;
28613;SDS011;15806;53.548;9.964;2023-03-01T09:06:54;10.13;;;4.77;;
28613;SDS011;15806;53.548;9.964;2023-03-01T09:08:35;11.20;;;4.17;;
28613;SDS011;15806;53.548;9.964;2023-03-01T09:10:17;10.48;;;4.40;;
28613;SDS011;15806;53.548;9.964;2023-03-01T09:11:58;8.98;;;4.30;;
28613;SDS011;15806;53.548;9.964;2023-03-01T09:13:38;7.63;;;4.40;;
28613;SDS011;15806;53.548;9.964;2023-03-01T09:15:19;8.83;;;4.60;;
28613;SDS011;15806;53.548;9.964;2023-03-01T09:16:59;8.53;;;4.70;;
28613;SDS011;15806;53.548;9.964;2023-03-01T09:18:40;10.57;;;4.63;;
28613;SDS011;15806;53.548;9.964;2023-03-01T09:20:21;11.03;;;4.37;;
28613;SDS011;15806;53.548;9.964;2023-03-01T09:22:02;14.03;;;4.97;;
28613;SDS011;15806;53.548;9.964;2023-03-01T09:23:44;7.40;;;4.00;;
28613;SDS011;15806;53.548;9.964;2023-03-01T09:25:26;10.07;;;4.93;;
28613;SDS011;15806;53.548;9.964;2023-03-01T09:27:07;11.60;;;4.97;;
28613;SDS011;15806;53.548;9.964;2023-03-01T09:28:52;11.67;;;5.93;;
28613;SDS011;15806;53.548;9.964;2023-03-01T09:30:33;9.95;;;4.82;;
28613;SDS011;15806;53.548;9.964;2023-03-01T09:32:14;8.10;;;4.83;;
28613;SDS011;15806;53.548;9.964;2023-03-01T09:33:55;8.27;;;4.67;;
28613;SDS011;15806;53.548;9.964;2023-03-01T09:35:35;13.30;;;4.83;;
28613;SDS011;15806;53.548;9.964;2023-03-01T09:37:16;9.60;;;4.67;;
28613;SDS011;15806;53.548;9.964;2023-03-01T09:38:59;10.90;;;5.90;;
28613;SDS011;15806;53.548;9.964;2023-03-01T09:40:43;16.50;;;6.78;;
28613;SDS011;15806;53.548;9.964;2023-03-01T09:42:24;16.42;;;8.40;;
28613;SDS011;15806;53.548;9.964;2023-03-01T09:46:03;12.93;;;6.65;;
28613;SDS011;15806;53.548;9.964;2023-03-01T09:47:46;15.02;;;7.00;;
28613;SDS011;15806;53.548;9.964;2023-03-01T09:49:30;15.90;;;7.97;;
28613;SDS011;15806;53.548;9.964;2023-03-01T09:51:19;16.75;;;7.88;;
28613;SDS011;15806;53.548;9.964;2023-03-01T09:53:13;14.82;;;7.70;;
28613;SDS011;15806;53.548;9.964;2023-03-01T09:55:00;15.07;;;7.28;;
28613;SDS011;15806;53.548;9.964;2023-03-01T09:56:41;19.25;;;8.52;;
28613;SDS011;15806;53.548;9.964;2023-03-01T09:58:44;18.08;;;8.30;;
28613;SDS011;15806;53.548;9.964;2023-03-01T10:00:43;17.33;;;8.05;;
28613;SDS011;15806;53.548;9.964;2023-03-01T10:04:24;16.55;;;7.80;;
28613;SDS011;15806;53.548;9.964;2023-03-01T10:06:10;13.55;;;6.90;;
28613;SDS011;15806;53.548;9.964;2023-03-01T10:07:55;14.30;;;6.93;;
28613;SDS011;15806;53.548;9.964;2023-03-01T10:09:41;15.45;;;6.75;;
28613;SDS011;15806;53.548;9.964;2023-03-01T10:13:29;17.85;;;6.90;;
28613;SDS011;15806;53.548;9.964;2023-03-01T10:15:22;15.55;;;6.80;;
28613;SDS011;15806;53.548;9.964;2023-03-01T10:18:58;15.75;;;7.78;;
28613;SDS011;15806;53.548;9.964;2023-03-01T10:20:56;13.30;;;6.95;;
28613;SDS011;15806;53.548;9.964;2023-03-01T10:22:42;16.98;;;7.47;;
28613;SDS011;15806;53.548;9.964;2023-03-01T10:24:23;18.00;;;7.43;;
28613;SDS011;15806;53.548;9.964;2023-03-01T10:28:16;14.05;;;6.53;;
28613;SDS011;15806;53.548;9.964;2023-03-01T10:31:58;14.82;;;6.15;;
28613;SDS011;15806;53.548;9.964;2023-03-01T10:33:39;14.43;;;7.30;;
28613;SDS011;15806;53.548;9.964;2023-03-01T10:35:22;15.80;;;6.85;;
28613;SDS011;15806;53.548;9.964;2023-03-01T10:37:10;20.77;;;8.95;;
28613;SDS011;15806;53.548;9.964;2023-03-01T10:38:54;11.90;;;6.40;;
28613;SDS011;15806;53.548;9.964;2023-03-01T10:40:36;14.05;;;6.70;;
28613;SDS011;15806;53.548;9.964;2023-03-01T10:44:35;11.65;;;5.88;;